Time;durP1;ratioP1;P1;durP2;ratioP2;P2;SDS_P1;SDS_P2;PMS_P1;PMS_P2;Temp;Humidity;BMP_temperature;BMP_pressure;BME280_temperature;BME280_humidity;BME280_pressure;Samples;Min_cycle;Max_cycle;Signal;HPM_P1;HPM_P2
2024/04/27 00:00:46;;;;;;;4.13;3.03;;;7.90;98.80;;;;;;5414617;26;20394;-75
2024/04/27 00:03:13;;;;;;;6.03;3.55;;;7.90;98.80;;;;;;5435359;26;20009;-75
2024/04/27 00:05:40;;;;;;;4.97;4.15;;;7.90;98.80;;;;;;5420559;26;20376;-75
2024/04/27 00:08:07;;;;;;;6.25;4.32;;;7.90;98.90;;;;;;5450329;26;20071;-75
2024/04/27 00:10:34;;;;;;;4.25;3.80;;;7.90;98.90;;;;;;5450394;26;20005;-75
2024/04/27 00:13:01;;;;;;;4.28;3.75;;;7.90;98.90;;;;;;5420941;26;19998;-75
2024/04/27 00:15:29;;;;;;;5.35;3.85;;;7.80;99.10;;;;;;5420576;26;19999;-75
2024/04/27 00:17:56;;;;;;;4.40;3.90;;;7.70;99.10;;;;;;5450327;26;20010;-75
2024/04/27 00:20:23;;;;;;;4.55;3.50;;;7.50;99.30;;;;;;5451968;26;20076;-75
2024/04/27 00:22:50;;;;;;;6.43;4.50;;;7.50;99.40;;;;;;5451878;26;20071;-75
2024/04/27 00:25:17;;;;;;;4.88;4.22;;;7.40;99.90;;;;;;5450287;26;20448;-75
2024/04/27 00:27:47;;;;;;;4.88;3.92;;;7.30;99.70;;;;;;5450066;26;19999;-75
2024/04/27 00:30:14;;;;;;;5.82;3.90;;;7.30;99.90;;;;;;5449557;26;20075;-75
2024/04/27 00:32:44;;;;;;;7.05;3.78;;;7.20;99.90;;;;;;5452133;26;20068;-75
2024/04/27 00:35:11;;;;;;;5.15;3.42;;;7.10;99.90;;;;;;5451941;26;19999;-75
2024/04/27 00:37:39;;;;;;;4.45;3.83;;;7.00;99.90;;;;;;5450572;26;20351;-75
2024/04/27 00:40:06;;;;;;;6.07;4.70;;;7.00;99.90;;;;;;5451751;26;19995;-75
2024/04/27 00:42:37;;;;;;;6.93;3.97;;;6.90;99.90;;;;;;5420517;26;20074;-75
2024/04/27 00:45:04;;;;;;;5.25;3.85;;;6.90;99.90;;;;;;5450003;26;19999;-75
2024/04/27 00:47:31;;;;;;;9.60;4.50;;;6.90;99.90;;;;;;5451890;26;20009;-75
2024/04/27 00:49:59;;;;;;;6.70;5.07;;;6.90;99.90;;;;;;5480265;26;20446;-75
2024/04/27 00:52:27;;;;;;;5.85;3.92;;;6.80;99.90;;;;;;5449958;26;20324;-76
2024/04/27 00:54:54;;;;;;;4.88;4.25;;;6.80;99.90;;;;;;5449456;26;20013;-75
2024/04/27 00:57:22;;;;;;;6.38;4.38;;;6.80;99.90;;;;;;5420065;26;20072;-75
2024/04/27 00:59:49;;;;;;;7.03;6.20;;;6.80;99.90;;;;;;5449569;26;20075;-75
2024/04/27 01:02:17;;;;;;;8.75;4.55;;;6.90;99.90;;;;;;5449779;26;20011;-76
2024/04/27 01:04:44;;;;;;;6.00;5.25;;;7.00;99.90;;;;;;5451339;26;20034;-75
2024/04/27 01:07:11;;;;;;;5.43;4.50;;;7.10;99.90;;;;;;5449305;26;19999;-75
2024/04/27 01:09:39;;;;;;;8.25;4.95;;;7.20;99.90;;;;;;5449761;26;20010;-75
2024/04/27 01:12:06;;;;;;;5.57;4.88;;;7.20;99.90;;;;;;5449285;26;19999;-75
2024/04/27 01:14:35;;;;;;;7.65;4.82;;;7.30;99.90;;;;;;5449587;26;20072;-75
2024/04/27 01:17:02;;;;;;;9.07;5.25;;;7.40;99.90;;;;;;5449692;26;19999;-75
2024/04/27 01:19:33;;;;;;;5.85;4.82;;;7.40;99.90;;;;;;5449428;26;20022;-75
2024/04/27 01:22:00;;;;;;;;;;;7.50;99.90;;;;;;5450062;26;20006;-75
2024/04/27 01:24:27;;;;;;;6.80;4.93;;;7.50;99.90;;;;;;5449522;26;19985;-75
2024/04/27 01:26:54;;;;;;;8.43;5.75;;;7.50;99.90;;;;;;5449243;26;20006;-75
2024/04/27 01:29:22;;;;;;;7.25;5.20;;;7.60;99.90;;;;;;5451118;26;20071;-75
2024/04/27 01:31:49;;;;;;;6.15;4.60;;;7.60;99.90;;;;;;5451436;26;20211;-75
2024/04/27 01:34:16;;;;;;;6.55;5.25;;;7.50;99.90;;;;;;5448934;26;20071;-75
2024/04/27 01:36:43;;;;;;;6.32;4.30;;;7.80;99.90;;;;;;5419486;26;19998;-75
2024/04/27 01:39:12;;;;;;;5.47;4.80;;;7.60;99.90;;;;;;5448852;26;19999;-75
2024/04/27 01:41:39;;;;;;;5.50;4.90;;;7.50;99.90;;;;;;5450823;26;19999;-75
2024/04/27 01:44:07;;;;;;;8.05;5.43;;;7.60;99.90;;;;;;5453776;26;20071;-75
2024/04/27 01:46:34;;;;;;;8.15;5.50;;;7.60;99.90;;;;;;5452457;26;20331;-75
2024/04/27 01:49:02;;;;;;;8.40;5.90;;;7.70;99.90;;;;;;5454039;26;20007;-75
2024/04/27 01:51:29;;;;;;;8.48;5.18;;;7.60;99.90;;;;;;5454285;26;20003;-75
2024/04/27 01:53:56;;;;;;;8.93;5.60;;;7.60;99.90;;;;;;5453964;26;20002;-75
2024/04/27 01:56:23;;;;;;;6.82;5.22;;;7.60;99.90;;;;;;5452933;26;20575;-76
2024/04/27 01:58:50;;;;;;;7.20;5.50;;;7.60;99.90;;;;;;5454358;26;20503;-75
2024/04/27 02:01:17;;;;;;;7.75;5.82;;;7.70;99.90;;;;;;5422527;26;19991;-75
2024/04/27 02:03:45;;;;;;;5.97;5.00;;;7.60;99.90;;;;;;5422822;26;20006;-75
2024/04/27 02:06:12;;;;;;;6.20;5.53;;;7.60;99.90;;;;;;5452282;26;20006;-75
2024/04/27 02:08:39;;;;;;;7.68;5.22;;;7.60;99.90;;;;;;5452459;26;20019;-75
2024/04/27 02:11:11;;;;;;;9.55;5.82;;;7.70;99.90;;;;;;5453767;26;20013;-75
2024/04/27 02:13:39;;;;;;;8.38;6.72;;;7.60;99.90;;;;;;5424098;26;19999;-75
2024/04/27 02:19:10;;;;;;;10.05;6.43;;;7.70;99.90;;;;;;5453974;26;19999;-75
2024/04/27 02:21:39;;;;;;;6.93;5.38;;;7.70;99.90;;;;;;5453823;26;20029;-75
2024/04/27 02:24:11;;;;;;;8.82;6.60;;;7.70;99.90;;;;;;5453337;26;20067;-75
2024/04/27 02:26:39;;;;;;;7.75;5.80;;;7.60;99.90;;;;;;5452131;26;20397;-75
2024/04/27 02:29:07;;;;;;;8.45;6.57;;;7.60;99.90;;;;;;5453499;26;20015;-75
2024/04/27 02:31:34;;;;;;;10.93;5.65;;;7.60;99.90;;;;;;5453857;26;20372;-75
2024/04/27 02:34:01;;;;;;;8.05;6.05;;;7.50;99.90;;;;;;5451896;26;19994;-75
2024/04/27 02:36:28;;;;;;;8.07;5.82;;;7.50;99.90;;;;;;5453796;26;20009;-75
2024/04/27 02:38:55;;;;;;;8.57;6.10;;;7.40;99.90;;;;;;5452184;26;20458;-75
2024/04/27 02:41:22;;;;;;;8.15;5.55;;;7.30;99.90;;;;;;5451712;26;19999;-75
2024/04/27 02:43:49;;;;;;;7.68;5.53;;;7.10;99.90;;;;;;5452157;26;19994;-75
2024/04/27 02:46:16;;;;;;;8.70;7.80;;;7.10;99.90;;;;;;5451795;26;20005;-75
2024/04/27 02:48:43;;;;;;;9.93;6.57;;;6.90;99.90;;;;;;5451965;26;20019;-75
2024/04/27 02:51:10;;;;;;;8.60;6.82;;;6.80;99.90;;;;;;5451302;26;20436;-75
2024/04/27 02:53:37;;;;;;;10.07;7.35;;;6.70;99.90;;;;;;5453058;26;20071;-75
2024/04/27 02:56:05;;;;;;;7.45;6.28;;;6.60;99.90;;;;;;5451314;26;19999;-75
2024/04/27 02:58:32;;;;;;;9.23;7.45;;;6.50;99.90;;;;;;5451448;26;20027;-75
2024/04/27 03:00:59;;;;;;;9.20;7.07;;;6.50;99.90;;;;;;5441407;26;20020;-75
2024/04/27 03:03:26;;;;;;;8.10;6.32;;;6.50;99.90;;;;;;5448191;26;20034;-75
2024/04/27 03:05:53;;;;;;;8.27;6.30;;;6.40;99.90;;;;;;5449411;26;20491;-75
2024/04/27 03:08:20;;;;;;;7.93;6.47;;;6.40;99.90;;;;;;5450814;26;20071;-75
2024/04/27 03:10:47;;;;;;;11.13;7.93;;;6.40;99.90;;;;;;5451321;26;19999;-75
2024/04/27 03:13:14;;;;;;;11.85;7.43;;;6.40;99.90;;;;;;5452858;26;20006;-75
2024/04/27 03:15:41;;;;;;;17.17;6.88;;;6.50;99.90;;;;;;5453176;26;20006;-75
2024/04/27 03:18:08;;;;;;;12.02;7.68;;;6.60;99.90;;;;;;5452858;26;19995;-75
2024/04/27 03:20:36;;;;;;;9.05;6.30;;;6.60;99.90;;;;;;5451674;26;20031;-75
2024/04/27 03:23:03;;;;;;;7.90;6.63;;;6.70;99.90;;;;;;5482299;26;20006;-75
2024/04/27 03:25:30;;;;;;;11.48;7.15;;;6.70;99.90;;;;;;5452720;26;19995;-75
2024/04/27 03:27:57;;;;;;;10.57;7.75;;;6.80;99.90;;;;;;5421307;26;20446;-75
2024/04/27 03:30:25;;;;;;;9.35;7.70;;;6.80;99.90;;;;;;5451013;26;20013;-75
2024/04/27 03:32:52;;;;;;;10.82;7.93;;;6.90;99.90;;;;;;5421376;26;20071;-75
2024/04/27 03:35:19;;;;;;;8.93;7.63;;;6.90;99.90;;;;;;5451052;26;20351;-75
2024/04/27 03:37:49;;;;;;;9.68;7.50;;;6.80;99.90;;;;;;5421235;26;20006;-75
2024/04/27 03:40:17;;;;;;;12.10;7.47;;;6.80;99.90;;;;;;5420860;26;20467;-75
2024/04/27 03:42:44;;;;;;;11.30;7.28;;;6.80;99.90;;;;;;5451103;26;19999;-75
2024/04/27 03:45:11;;;;;;;11.10;7.50;;;6.70;99.90;;;;;;5450587;26;20013;-75
2024/04/27 03:47:38;;;;;;;9.15;8.23;;;6.70;99.90;;;;;;5452645;26;19999;-75
2024/04/27 03:50:07;;;;;;;12.68;9.05;;;6.70;99.90;;;;;;5452810;26;20400;-75
2024/04/27 03:52:35;;;;;;;10.30;8.45;;;6.70;99.90;;;;;;5453002;26;20098;-75
2024/04/27 03:55:02;;;;;;;11.40;8.88;;;6.70;99.90;;;;;;5421404;26;19995;-75
2024/04/27 03:57:30;;;;;;;13.27;8.25;;;6.70;99.90;;;;;;5452584;26;20067;-75
2024/04/27 03:59:58;;;;;;;11.43;7.97;;;6.80;99.90;;;;;;5451033;26;19999;-75
2024/04/27 04:02:25;;;;;;;10.60;7.93;;;6.90;99.90;;;;;;5450438;26;20331;-75
2024/04/27 04:04:52;;;;;;;11.60;8.48;;;6.90;99.90;;;;;;5449491;26;20004;-75
2024/04/27 04:07:19;;;;;;;11.60;8.40;;;7.00;99.90;;;;;;5450253;26;19999;-75
2024/04/27 04:09:49;;;;;;;11.75;8.60;;;7.10;99.90;;;;;;5451013;26;20003;-75
2024/04/27 04:12:16;;;;;;;11.35;8.40;;;7.20;99.90;;;;;;5420489;26;19998;-75
2024/04/27 04:14:43;;;;;;;11.23;8.77;;;7.30;99.90;;;;;;5452360;26;20010;-75
2024/04/27 04:17:10;;;;;;;12.98;9.13;;;7.40;99.90;;;;;;5480720;26;20331;-75
2024/04/27 04:19:38;;;;;;;8.88;7.43;;;7.40;99.90;;;;;;5451778;26;20512;-75
2024/04/27 04:22:05;;;;;;;15.18;9.10;;;7.50;99.90;;;;;;5450096;26;20009;-75
2024/04/27 04:24:32;;;;;;;12.05;8.77;;;7.50;99.90;;;;;;5419785;26;19998;-75
2024/04/27 04:26:59;;;;;;;11.82;8.52;;;7.60;99.90;;;;;;5451890;26;19999;-75
2024/04/27 04:29:26;;;;;;;11.00;8.48;;;7.80;99.90;;;;;;5452025;26;19995;-75
2024/04/27 04:31:53;;;;;;;13.10;7.68;;;7.60;99.90;;;;;;5452233;26;20400;-75
2024/04/27 04:34:20;;;;;;;15.80;9.50;;;7.50;99.90;;;;;;5450154;26;20006;-75
2024/04/27 04:36:47;;;;;;;10.50;7.57;;;7.60;99.90;;;;;;5420463;26;19995;-75
2024/04/27 04:39:15;;;;;;;11.32;8.40;;;7.60;99.90;;;;;;5451814;26;20075;-75
2024/04/27 04:41:43;;;;;;;12.93;8.95;;;7.70;99.90;;;;;;5451969;26;20045;-75
2024/04/27 04:44:10;;;;;;;12.45;10.35;;;7.70;99.90;;;;;;5420626;26;19995;-75
2024/04/27 04:46:37;;;;;;;11.77;8.85;;;7.80;99.90;;;;;;5451412;26;20034;-75
2024/04/27 04:49:04;;;;;;;11.98;10.13;;;7.90;99.90;;;;;;5449810;26;20010;-75
2024/04/27 04:51:32;;;;;;;11.43;8.85;;;7.90;99.90;;;;;;5451196;26;20068;-75
2024/04/27 04:53:59;;;;;;;12.88;10.10;;;7.90;99.90;;;;;;5451418;26;19999;-75
2024/04/27 04:56:26;;;;;;;11.93;8.40;;;7.90;99.90;;;;;;5449483;26;20010;-75
2024/04/27 04:58:53;;;;;;;10.00;8.77;;;7.90;99.90;;;;;;5451348;26;20075;-75
2024/04/27 05:01:22;;;;;;;11.77;9.57;;;7.90;99.90;;;;;;5433803;26;20453;-75
2024/04/27 05:03:49;;;;;;;13.35;10.57;;;7.90;99.90;;;;;;5415138;26;20014;-75
2024/04/27 05:06:16;;;;;;;13.05;8.95;;;7.90;99.90;;;;;;5441534;26;20000;-75
2024/04/27 05:08:43;;;;;;;11.45;8.88;;;7.90;99.90;;;;;;5383733;26;20004;-75
2024/04/27 05:11:11;;;;;;;11.75;10.07;;;7.90;99.90;;;;;;5415554;26;19995;-75
2024/04/27 05:13:38;;;;;;;12.77;9.32;;;7.90;99.90;;;;;;5414975;26;19999;-75
2024/04/27 05:16:05;;;;;;;13.65;9.60;;;7.90;99.90;;;;;;5473614;26;20460;-75
2024/04/27 05:18:32;;;;;;;12.98;9.50;;;7.90;99.90;;;;;;5476580;26;20000;-75
2024/04/27 05:20:59;;;;;;;11.52;9.00;;;8.00;99.90;;;;;;5418727;26;20068;-75
2024/04/27 05:23:26;;;;;;;17.50;10.02;;;8.10;99.90;;;;;;5418310;26;20064;-75
2024/04/27 05:25:53;;;;;;;13.50;11.02;;;8.20;99.90;;;;;;5418465;26;20073;-75
2024/04/27 05:28:20;;;;;;;13.57;10.38;;;8.30;99.90;;;;;;5446381;26;20014;-75
2024/04/27 05:30:47;;;;;;;12.50;10.23;;;8.40;99.90;;;;;;5416714;26;19999;-75
2024/04/27 05:33:15;;;;;;;12.45;9.43;;;8.60;99.90;;;;;;5418553;26;19999;-75
2024/04/27 05:35:42;;;;;;;11.85;9.73;;;8.70;99.90;;;;;;5416233;26;20443;-75
2024/04/27 05:38:12;;;;;;;13.80;10.02;;;9.20;99.90;;;;;;5418370;26;19999;-75
2024/04/27 05:40:39;;;;;;;15.25;9.88;;;9.30;99.90;;;;;;5445992;26;20000;-76
2024/04/27 05:43:08;;;;;;;15.85;9.73;;;9.60;99.90;;;;;;5476303;26;19999;-76
2024/04/27 05:45:35;;;;;;;12.98;9.90;;;9.80;99.90;;;;;;5416112;26;19999;-76
2024/04/27 05:48:08;;;;;;;11.77;9.70;;;10.10;99.90;;;;;;5476569;26;20007;-75
2024/04/27 05:50:35;;;;;;;16.55;11.60;;;10.30;99.90;;;;;;5417912;26;19999;-75
2024/04/27 05:53:02;;;;;;;14.70;12.95;;;10.50;99.90;;;;;;5418480;26;20007;-75
2024/04/27 05:55:29;;;;;;;18.83;12.88;;;10.80;99.90;;;;;;5476315;26;19999;-75
2024/04/27 05:57:56;;;;;;;13.63;11.00;;;11.20;99.90;;;;;;5476833;26;20319;-76
2024/04/27 06:00:24;;;;;;;17.20;11.45;;;11.70;99.90;;;;;;5416550;26;20085;-76
2024/04/27 06:02:51;;;;;;;14.75;11.10;;;12.20;99.90;;;;;;5476214;26;19995;-76
2024/04/27 06:05:18;;;;;;;16.92;11.85;;;12.60;99.90;;;;;;5417870;26;20000;-75
2024/04/27 06:07:45;;;;;;;16.60;11.40;;;12.70;99.90;;;;;;5417779;26;20012;-76
2024/04/27 06:10:12;;;;;;;17.52;11.63;;;12.70;99.90;;;;;;5425936;26;20007;-75
2024/04/27 06:12:41;;;;;;;15.48;11.57;;;12.70;99.90;;;;;;5451492;26;19998;-76
2024/04/27 06:15:09;;;;;;;19.65;12.43;;;12.60;99.80;;;;;;5451649;26;20013;-73
2024/04/27 06:17:36;;;;;;;16.40;11.43;;;12.50;99.50;;;;;;5453214;26;20014;-73
2024/04/27 06:20:03;;;;;;;16.23;11.60;;;12.40;99.40;;;;;;5451551;26;20089;-74
2024/04/27 06:22:30;;;;;;;19.17;11.95;;;12.30;99.10;;;;;;5453010;26;20356;-73
2024/04/27 06:25:02;;;;;;;19.10;13.38;;;12.30;99.20;;;;;;5453266;26;20342;-74
2024/04/27 06:27:30;;;;;;;18.45;13.60;;;12.20;99.30;;;;;;5453561;26;20096;-74
2024/04/27 06:29:57;;;;;;;21.42;13.90;;;12.20;99.10;;;;;;5422070;26;19995;-73
2024/04/27 06:32:24;;;;;;;19.20;13.90;;;12.30;98.90;;;;;;5452208;26;20005;-75
2024/04/27 06:34:51;;;;;;;20.13;13.68;;;12.30;98.50;;;;;;5453191;26;20011;-75
2024/04/27 06:37:18;;;;;;;22.50;14.32;;;12.40;98.30;;;;;;5421946;26;20346;-76
2024/04/27 06:39:45;;;;;;;15.95;11.82;;;12.40;98.10;;;;;;5451839;26;20060;-75
2024/04/27 06:42:12;;;;;;;16.92;12.55;;;12.40;98.10;;;;;;5422243;26;19995;-76
2024/04/27 06:44:39;;;;;;;24.23;14.65;;;12.50;98.10;;;;;;5451006;26;20017;-75
2024/04/27 06:47:06;;;;;;;15.80;10.90;;;12.50;97.90;;;;;;5453031;26;20377;-75
2024/04/27 06:49:36;;;;;;;19.23;13.18;;;12.70;98.00;;;;;;5421881;26;20067;-76
2024/04/27 06:52:03;;;;;;;21.23;16.05;;;13.00;98.20;;;;;;5451372;26;20479;-76
2024/04/27 06:54:31;;;;;;;21.67;14.20;;;13.40;95.80;;;;;;5453243;26;20013;-76
2024/04/27 06:56:59;;;;;;;19.10;15.70;;;13.80;96.90;;;;;;5451920;26;20006;-76
2024/04/27 06:59:26;;;;;;;15.95;11.75;;;14.00;96.50;;;;;;5453339;26;20013;-76
2024/04/27 07:01:53;;;;;;;16.50;11.38;;;14.20;94.80;;;;;;5453475;26;20387;-74
2024/04/27 07:04:20;;;;;;;17.30;12.65;;;14.60;95.50;;;;;;5453681;26;19999;-74
2024/04/27 07:06:47;;;;;;;11.38;7.80;;;15.00;95.00;;;;;;5422338;26;20071;-74
2024/04/27 07:09:14;;;;;;;17.45;13.48;;;15.40;93.70;;;;;;5450911;26;20071;-74
2024/04/27 07:11:41;;;;;;;19.08;12.98;;;15.80;93.30;;;;;;5453184;26;19995;-74
2024/04/27 07:14:09;;;;;;;19.33;14.35;;;16.10;92.40;;;;;;5451513;26;20381;-74
2024/04/27 07:16:36;;;;;;;23.58;15.07;;;16.20;91.90;;;;;;5481753;26;20026;-74
2024/04/27 07:19:04;;;;;;;19.73;13.45;;;16.30;91.30;;;;;;5451480;26;19995;-74
2024/04/27 07:21:31;;;;;;;19.52;13.77;;;16.20;90.70;;;;;;5392357;26;20006;-74
2024/04/27 07:24:06;;;;;;;13.35;11.15;;;16.20;90.50;;;;;;5451301;26;20014;-76
2024/04/27 07:26:33;;;;;;;19.55;13.63;;;15.90;89.70;;;;;;5421414;26;20003;-76
2024/04/27 07:29:00;;;;;;;17.08;13.05;;;15.90;90.50;;;;;;5452021;26;20176;-74
2024/04/27 07:31:27;;;;;;;19.73;14.57;;;15.90;90.60;;;;;;5451410;26;20138;-74
2024/04/27 07:33:54;;;;;;;19.98;13.60;;;15.90;90.00;;;;;;5421555;26;20007;-74
2024/04/27 07:36:21;;;;;;;18.25;13.35;;;16.00;90.20;;;;;;5451216;26;19999;-75
2024/04/27 07:38:50;;;;;;;18.73;13.15;;;16.30;90.20;;;;;;5416811;26;20076;-74
2024/04/27 07:41:22;;;;;;;16.38;13.25;;;16.40;88.90;;;;;;5447574;26;20436;-75
2024/04/27 07:43:50;;;;;;;19.55;13.50;;;16.90;89.10;;;;;;5450010;26;20011;-75
2024/04/27 07:46:18;;;;;;;16.85;14.25;;;17.40;88.40;;;;;;5452093;26;20005;-76
2024/04/27 07:48:45;;;;;;;21.88;14.13;;;17.70;83.70;;;;;;5452688;26;20006;-76
2024/04/27 07:51:12;;;;;;;11.10;8.90;;;17.80;84.80;;;;;;5450869;26;20428;-75
2024/04/27 07:53:39;;;;;;;17.27;12.75;;;17.80;83.90;;;;;;5452527;26;20010;-76
2024/04/27 07:56:06;;;;;;;20.05;13.82;;;17.80;83.40;;;;;;5419560;26;20013;-75
2024/04/27 07:58:33;;;;;;;19.05;12.77;;;17.70;83.50;;;;;;5452722;26;20007;-75
2024/04/27 08:01:00;;;;;;;16.23;13.15;;;17.70;84.40;;;;;;5450379;26;20004;-75
2024/04/27 08:03:27;;;;;;;19.02;14.35;;;17.70;84.30;;;;;;5452302;26;20011;-75
2024/04/27 08:05:54;;;;;;;16.30;11.60;;;17.60;84.20;;;;;;5451993;26;20003;-75
2024/04/27 08:08:21;;;;;;;15.95;11.40;;;17.50;82.60;;;;;;5452486;26;19999;-75
2024/04/27 08:10:48;;;;;;;17.05;14.45;;;17.30;84.10;;;;;;5452026;26;20034;-75
2024/04/27 08:13:16;;;;;;;10.48;8.75;;;17.40;84.30;;;;;;5452238;26;20434;-75
2024/04/27 08:15:44;;;;;;;20.83;13.73;;;17.30;83.70;;;;;;5452244;26;19999;-75
2024/04/27 08:18:11;;;;;;;15.57;8.88;;;17.00;84.30;;;;;;5452272;26;20071;-75
2024/04/27 08:20:38;;;;;;;21.13;14.60;;;16.80;84.70;;;;;;5452094;26;19999;-75
2024/04/27 08:23:12;;;;;;;18.48;13.32;;;16.80;85.20;;;;;;5450031;26;20345;-75
2024/04/27 08:25:39;;;;;;;13.40;11.48;;;17.00;84.80;;;;;;5421663;26;20006;-75
2024/04/27 08:28:07;;;;;;;15.27;12.00;;;16.80;84.30;;;;;;5420645;26;20071;-75
2024/04/27 08:30:34;;;;;;;15.32;11.50;;;16.60;85.00;;;;;;5450778;26;20309;-75
2024/04/27 08:33:01;;;;;;;12.93;9.40;;;16.50;85.50;;;;;;5451719;26;19999;-75
2024/04/27 08:35:28;;;;;;;18.17;13.55;;;16.40;86.10;;;;;;5450671;26;20050;-75
2024/04/27 08:37:55;;;;;;;15.90;11.68;;;16.40;86.40;;;;;;5449857;26;19995;-75
2024/04/27 08:40:22;;;;;;;15.60;12.32;;;16.40;86.40;;;;;;5420682;26;19994;-75
2024/04/27 08:42:49;;;;;;;13.93;11.70;;;16.40;86.20;;;;;;5419791;26;20468;-75
2024/04/27 08:45:21;;;;;;;16.08;11.20;;;16.60;86.60;;;;;;5451778;26;19999;-75
2024/04/27 08:47:49;;;;;;;12.15;9.05;;;16.90;85.90;;;;;;5451741;26;19999;-75
2024/04/27 08:50:17;;;;;;;9.80;8.13;;;17.30;84.10;;;;;;5451942;26;20003;-75
2024/04/27 08:52:44;;;;;;;7.85;5.55;;;17.60;83.70;;;;;;5449128;26;20026;-75
2024/04/27 08:55:12;;;;;;;12.55;10.63;;;18.10;83.00;;;;;;5419881;26;20007;-75
2024/04/27 08:57:39;;;;;;;14.10;10.85;;;18.40;81.50;;;;;;5451565;26;19999;-75
2024/04/27 09:00:07;;;;;;;14.60;8.60;;;18.40;82.10;;;;;;5449360;26;20079;-75
2024/04/27 09:02:35;;;;;;;12.10;10.55;;;18.40;81.50;;;;;;5449605;26;20512;-75
2024/04/27 09:05:04;;;;;;;14.05;11.13;;;18.20;81.70;;;;;;5420008;26;20071;-75
2024/04/27 09:07:31;;;;;;;16.67;9.80;;;18.20;82.00;;;;;;5451427;26;20067;-75
2024/04/27 09:09:58;;;;;;;12.20;8.40;;;17.90;81.60;;;;;;5449682;26;20332;-75
2024/04/27 09:12:26;;;;;;;12.27;10.50;;;17.80;82.20;;;;;;5451303;26;19999;-75
2024/04/27 09:14:53;;;;;;;10.63;8.45;;;17.90;82.50;;;;;;5449530;26;20335;-75
2024/04/27 09:17:22;;;;;;;8.82;7.00;;;18.00;82.00;;;;;;5451506;26;20075;-75
2024/04/27 09:19:50;;;;;;;11.10;9.27;;;18.00;81.70;;;;;;5451277;26;20090;-75
2024/04/27 09:22:19;;;;;;;12.98;8.85;;;18.00;81.80;;;;;;5448961;26;20011;-75
2024/04/27 09:24:54;;;;;;;11.27;9.05;;;17.80;82.20;;;;;;5419548;26;20006;-75
2024/04/27 09:27:26;;;;;;;12.02;10.77;;;17.90;82.50;;;;;;5449228;26;20075;-75
2024/04/27 09:29:53;;;;;;;12.75;8.35;;;17.90;82.10;;;;;;5449455;26;20006;-75
2024/04/27 09:32:20;;;;;;;11.43;7.82;;;17.90;82.00;;;;;;5449118;26;19999;-75
2024/04/27 09:34:48;;;;;;;10.98;8.63;;;17.80;82.40;;;;;;5450919;26;20003;-75
2024/04/27 09:37:19;;;;;;;10.07;8.27;;;17.80;82.70;;;;;;5448645;26;20043;-75
2024/04/27 09:39:51;;;;;;;10.88;7.38;;;17.90;82.20;;;;;;5449162;26;20015;-75
2024/04/27 09:42:21;;;;;;;7.63;6.13;;;17.90;82.00;;;;;;5418793;26;19999;-75
2024/04/27 09:44:55;;;;;;;6.40;5.80;;;17.90;82.20;;;;;;5450828;26;19999;-76
2024/04/27 09:47:29;;;;;;;7.40;5.57;;;18.10;81.40;;;;;;5451054;26;20002;-75
2024/04/27 09:50:08;;;;;;;6.60;4.97;;;18.20;81.80;;;;;;5450933;26;20075;-75
2024/04/27 09:52:50;;;;;;;4.00;3.25;;;18.20;80.30;;;;;;5419137;26;20424;-75
2024/04/27 09:55:19;;;;;;;5.10;4.60;;;18.00;80.30;;;;;;5450584;26;19995;-75
2024/04/27 09:57:47;;;;;;;4.70;3.53;;;17.80;80.90;;;;;;5449148;26;20435;-75
2024/04/27 10:00:16;;;;;;;6.13;4.45;;;17.70;81.40;;;;;;5450000;26;20135;-75
2024/04/27 10:02:45;;;;;;;4.80;4.35;;;17.60;80.50;;;;;;5448524;26;20044;-75
2024/04/27 10:05:13;;;;;;;5.60;5.00;;;17.80;81.00;;;;;;5453747;26;20027;-76
2024/04/27 10:07:40;;;;;;;4.93;4.07;;;17.80;80.90;;;;;;5453982;26;19998;-76
2024/04/27 10:10:27;;;;;;;7.10;6.40;;;17.90;81.20;;;;;;5422337;26;20003;-75
2024/04/27 10:12:59;;;;;;;9.48;4.85;;;18.10;81.20;;;;;;5452117;26;20348;-75
2024/04/27 10:15:26;;;;;;;6.68;3.28;;;18.40;81.10;;;;;;5453883;26;19999;-75
2024/04/27 10:17:54;;;;;;;4.57;3.80;;;18.60;80.50;;;;;;5453898;26;20072;-75
2024/04/27 10:20:39;;;;;;;4.82;3.78;;;18.70;79.20;;;;;;5422048;26;19998;-74
2024/04/27 10:23:18;;;;;;;6.15;4.30;;;18.80;79.90;;;;;;5451906;26;19995;-75
2024/04/27 10:25:50;;;;;;;4.75;4.35;;;18.70;78.50;;;;;;5452262;26;20529;-74
2024/04/27 10:28:18;;;;;;;4.82;3.00;;;18.50;79.30;;;;;;5452145;26;20027;-74
2024/04/27 10:30:46;;;;;;;4.00;3.40;;;18.50;79.60;;;;;;5453860;26;20003;-74
2024/04/27 10:33:15;;;;;;;4.53;4.13;;;18.60;79.60;;;;;;5451970;26;20390;-74
2024/04/27 10:35:50;;;;;;;5.43;3.85;;;18.80;80.00;;;;;;5454060;26;19995;-74
2024/04/27 10:38:31;;;;;;;4.07;3.67;;;19.00;78.80;;;;;;5451803;26;20068;-74
2024/04/27 10:40:59;;;;;;;4.72;3.92;;;18.90;78.60;;;;;;5453312;26;20071;-74
2024/04/27 10:43:26;;;;;;;3.42;3.13;;;18.60;80.00;;;;;;5453086;26;20546;-75
2024/04/27 10:45:53;;;;;;;5.43;4.93;;;18.50;80.00;;;;;;5451513;26;20162;-74
2024/04/27 10:48:20;;;;;;;4.05;3.22;;;18.60;80.10;;;;;;5451084;26;20067;-75
2024/04/27 10:50:50;;;;;;;4.22;3.35;;;18.50;80.20;;;;;;5453315;26;20435;-75
2024/04/27 10:53:18;;;;;;;4.57;2.88;;;18.50;79.70;;;;;;5451157;26;20070;-74
2024/04/27 10:55:45;;;;;;;3.08;2.75;;;18.30;80.00;;;;;;5453155;26;19999;-74
2024/04/27 10:58:13;;;;;;;4.72;3.90;;;18.30;80.90;;;;;;5451108;26;20504;-74
2024/04/27 11:00:40;;;;;;;4.53;3.72;;;17.90;81.00;;;;;;5451129;26;20076;-74
2024/04/27 11:03:12;;;;;;;4.38;3.97;;;17.80;81.80;;;;;;5451226;26;20428;-74
2024/04/27 11:05:39;;;;;;;5.28;4.78;;;17.60;81.90;;;;;;5453558;26;20023;-74
2024/04/27 11:08:07;;;;;;;5.20;4.80;;;17.50;82.70;;;;;;5453167;26;20002;-74
2024/04/27 11:10:34;;;;;;;4.20;2.83;;;17.30;83.60;;;;;;5452939;26;20389;-74
2024/04/27 11:13:02;;;;;;;5.13;4.57;;;17.30;83.90;;;;;;5453413;26;19995;-74
2024/04/27 11:15:33;;;;;;;4.43;3.63;;;17.20;84.50;;;;;;5450856;26;19995;-74
2024/04/27 11:18:01;;;;;;;3.28;2.97;;;17.10;85.50;;;;;;5453266;26;20007;-74
2024/04/27 11:20:32;;;;;;;4.40;3.60;;;17.00;85.40;;;;;;5450524;26;19999;-74
2024/04/27 11:22:59;;;;;;;5.65;3.65;;;17.00;87.60;;;;;;5452970;26;20072;-74
2024/04/27 11:25:26;;;;;;;6.00;4.32;;;16.80;88.40;;;;;;5450762;26;20389;-74
2024/04/27 11:27:53;;;;;;;3.35;2.58;;;16.60;88.80;;;;;;5452554;26;20071;-74
2024/04/27 11:30:21;;;;;;;3.97;3.10;;;16.30;90.20;;;;;;5420918;26;19999;-74
2024/04/27 11:32:48;;;;;;;5.18;4.30;;;16.10;90.70;;;;;;5451154;26;20076;-75
2024/04/27 11:35:15;;;;;;;4.63;3.50;;;16.10;90.90;;;;;;5452455;26;20012;-74
2024/04/27 11:37:43;;;;;;;2.95;2.25;;;16.30;90.80;;;;;;5451044;26;20729;-74
2024/04/27 11:40:10;;;;;;;3.80;2.65;;;16.60;91.10;;;;;;5451041;26;20041;-74
2024/04/27 11:42:37;;;;;;;5.82;5.32;;;17.10;90.50;;;;;;5453214;26;19995;-74
2024/04/27 11:45:04;;;;;;;3.20;2.88;;;17.20;87.40;;;;;;5421572;26;19994;-74
2024/04/27 11:47:31;;;;;;;3.53;3.22;;;17.20;88.00;;;;;;5452322;26;19995;-75
2024/04/27 11:49:58;;;;;;;2.75;2.05;;;17.40;86.60;;;;;;5452775;26;20013;-76
2024/04/27 11:52:26;;;;;;;5.47;2.75;;;17.70;86.40;;;;;;5452641;26;20023;-76
2024/04/27 11:54:53;;;;;;;3.70;3.40;;;17.90;85.90;;;;;;5448926;26;20007;-76
2024/04/27 11:57:20;;;;;;;3.13;2.67;;;18.20;85.60;;;;;;5434212;26;20071;-76
2024/04/27 11:59:47;;;;;;;3.67;3.38;;;18.50;83.80;;;;;;5450052;26;20010;-76
2024/04/27 12:02:14;;;;;;;4.35;3.17;;;18.50;82.90;;;;;;5420962;26;20521;-76
2024/04/27 12:04:41;;;;;;;5.53;3.92;;;18.60;83.50;;;;;;5452367;26;20018;-76
2024/04/27 12:07:08;;;;;;;4.15;3.22;;;18.90;82.10;;;;;;5450539;26;20014;-76
2024/04/27 12:09:35;;;;;;;4.43;3.78;;;19.40;81.90;;;;;;5451870;26;20010;-76
2024/04/27 12:12:04;;;;;;;3.83;3.53;;;20.10;81.00;;;;;;5452392;26;19999;-76
2024/04/27 12:14:33;;;;;;;3.22;2.92;;;20.60;78.30;;;;;;5452191;26;20011;-76
2024/04/27 12:17:00;;;;;;;3.83;2.80;;;20.60;78.30;;;;;;5420900;26;20011;-76
2024/04/27 12:19:27;;;;;;;4.68;4.32;;;20.30;77.60;;;;;;5450241;26;20009;-76
2024/04/27 12:21:54;;;;;;;3.00;2.33;;;19.70;78.40;;;;;;5452532;26;19995;-76
2024/04/27 12:24:22;;;;;;;3.17;2.88;;;19.00;80.70;;;;;;5450497;26;20381;-76
2024/04/27 12:26:49;;;;;;;2.85;2.65;;;18.60;81.80;;;;;;5451109;26;20005;-76
2024/04/27 12:29:16;;;;;;;4.00;3.35;;;18.30;82.50;;;;;;5452180;26;19999;-76
2024/04/27 12:31:43;;;;;;;3.55;2.63;;;18.10;83.20;;;;;;5420579;26;19995;-76
2024/04/27 12:34:12;;;;;;;3.25;2.92;;;18.00;83.10;;;;;;5450526;26;19999;-76
2024/04/27 12:36:40;;;;;;;2.83;2.42;;;18.00;83.30;;;;;;5421206;26;20435;-76
2024/04/27 12:39:07;;;;;;;3.05;2.13;;;17.90;83.60;;;;;;5451705;26;20010;-76
2024/04/27 12:41:34;;;;;;;4.32;3.28;;;18.10;83.80;;;;;;5420342;26;20079;-76
2024/04/27 12:44:01;;;;;;;3.83;2.58;;;18.20;82.80;;;;;;5451855;26;20072;-76
2024/04/27 12:46:29;;;;;;;2.75;2.55;;;18.30;83.20;;;;;;5449525;26;20014;-76
2024/04/27 12:48:56;;;;;;;3.00;2.78;;;18.30;83.50;;;;;;5449891;26;20006;-76